createdAt,value
2022-09-13T00:04:37.246Z,3
2022-09-13T00:10:47.870Z,3
2022-09-13T00:18:04.621Z,3
2022-09-13T00:24:15.148Z,3
2022-09-13T00:30:25.824Z,3
2022-09-13T00:36:36.539Z,3
2022-09-13T00:42:47.169Z,3
2022-09-13T00:48:57.815Z,3
2022-09-13T00:55:08.515Z,3
2022-09-13T01:01:19.261Z,3
2022-09-13T01:07:29.844Z,3
2022-09-13T01:13:40.597Z,3
2022-09-13T01:20:57.093Z,3
2022-09-13T01:27:07.785Z,3
2022-09-13T01:32:12.529Z,3
2022-09-13T01:38:23.153Z,3
2022-09-13T01:44:33.857Z,3
2022-09-13T01:50:44.621Z,3
2022-09-13T01:56:55.156Z,3
2022-09-13T02:03:05.821Z,3
2022-09-13T02:09:20.720Z,3
2022-09-13T02:15:27.197Z,3
2022-09-13T02:21:29.653Z,3
2022-09-13T02:27:40.316Z,3
2022-09-13T02:33:50.985Z,4
2022-09-13T02:40:01.717Z,3
2022-09-13T02:46:12.582Z,4
2022-09-13T02:51:25.239Z,3
2022-09-13T02:57:35.887Z,4
2022-09-13T03:03:46.585Z,3
2022-09-13T03:09:57.225Z,3
2022-09-13T03:16:08.011Z,3
2022-09-13T03:22:10.396Z,3
2022-09-13T03:28:21.033Z,3
2022-09-13T03:34:31.733Z,3
2022-09-13T03:40:42.370Z,3
2022-09-13T03:46:53.034Z,3
2022-09-13T03:53:03.691Z,3
2022-09-13T03:59:14.421Z,3
2022-09-13T04:05:25.023Z,4
2022-09-13T04:11:35.706Z,3
2022-09-13T04:17:46.419Z,3
2022-09-13T04:23:48.832Z,3
2022-09-13T04:29:59.530Z,3
2022-09-13T04:36:10.286Z,3
2022-09-13T04:42:20.839Z,3
2022-09-13T04:48:31.514Z,3
2022-09-13T04:54:42.203Z,4
2022-09-13T05:00:52.889Z,3
2022-09-13T05:07:03.507Z,3
2022-09-13T05:13:14.279Z,3
2022-09-13T05:18:27.083Z,3
2022-09-13T05:24:29.551Z,3
2022-09-13T05:30:42.304Z,3
2022-09-13T05:36:54.083Z,3
2022-09-13T05:41:55.605Z,5
2022-09-13T05:48:06.310Z,4
2022-09-13T05:54:16.952Z,5
2022-09-13T06:00:27.617Z,12
2022-09-13T06:06:38.394Z,7
2022-09-13T06:12:48.945Z,5
2022-09-13T06:18:59.613Z,32
2022-09-13T06:25:02.140Z,25
2022-09-13T06:31:12.868Z,6
2022-09-13T06:37:23.438Z,5
2022-09-13T06:43:34.130Z,3
2022-09-13T06:49:44.771Z,6
2022-09-13T06:55:55.425Z,4
2022-09-13T07:02:06.202Z,4
2022-09-13T07:08:16.779Z,3
2022-09-13T07:14:27.431Z,2
2022-09-13T07:20:38.244Z,3
2022-09-13T07:26:40.580Z,4
2022-09-13T07:32:51.254Z,5
2022-09-13T07:39:01.932Z,4
2022-09-13T07:45:12.582Z,7
2022-09-13T07:50:25.485Z,21
2022-09-13T07:56:36.195Z,15
2022-09-13T08:02:46.940Z,5
2022-09-13T08:08:57.510Z,4
2022-09-13T08:15:08.183Z,4
2022-09-13T08:21:18.832Z,3
2022-09-13T08:27:21.325Z,3
2022-09-13T08:33:31.983Z,3
2022-09-13T08:39:42.686Z,2
2022-09-13T08:45:53.441Z,2
2022-09-13T08:52:04.001Z,2
2022-09-13T08:58:14.635Z,2
2022-09-13T09:04:25.312Z,2
2022-09-13T09:10:35.987Z,2
2022-09-13T09:16:46.667Z,2
2022-09-13T09:22:49.118Z,3
2022-09-13T09:28:59.813Z,2
2022-09-13T09:35:10.486Z,3
2022-09-13T09:41:21.141Z,4
2022-09-13T09:47:40.047Z,3
2022-09-13T09:53:50.660Z,4
2022-09-13T10:00:01.303Z,2
2022-09-13T10:06:12.097Z,3
2022-09-13T10:12:22.642Z,2
2022-09-13T10:17:35.576Z,4
2022-09-13T10:23:46.323Z,2
2022-09-13T10:29:48.716Z,2
2022-09-13T10:35:59.399Z,2
2022-09-13T10:42:10.153Z,2
2022-09-13T10:48:20.729Z,2
2022-09-13T10:54:31.393Z,2
2022-09-13T11:00:42.113Z,2
2022-09-13T11:06:52.733Z,4
2022-09-13T11:13:03.401Z,4
2022-09-13T11:19:14.077Z,4
2022-09-13T11:25:16.543Z,3
2022-09-13T11:31:27.282Z,6
2022-09-13T11:37:37.923Z,3
2022-09-13T11:43:48.745Z,4
2022-09-13T11:49:59.193Z,8
2022-09-13T11:56:09.908Z,5
2022-09-13T12:02:20.642Z,3
2022-09-13T12:08:31.207Z,3
2022-09-13T12:14:41.914Z,2
2022-09-13T12:20:52.531Z,7
2022-09-13T12:26:55.022Z,3
2022-09-13T12:33:05.735Z,3
2022-09-13T12:39:16.361Z,3
2022-09-13T12:45:27.036Z,2
2022-09-13T12:50:44.189Z,2
2022-09-13T12:56:54.892Z,3
2022-09-13T13:03:01.277Z,3
2022-09-13T13:09:11.971Z,4
2022-09-13T13:15:22.611Z,2
2022-09-13T13:21:33.303Z,2
2022-09-13T13:27:35.769Z,2
2022-09-13T13:33:46.418Z,4
2022-09-13T13:39:57.117Z,3
2022-09-13T13:46:07.832Z,4
2022-09-13T13:52:18.432Z,4
2022-09-13T13:57:23.167Z,3
2022-09-13T14:03:33.881Z,2
2022-09-13T14:09:44.492Z,4
2022-09-13T14:15:55.154Z,3
2022-09-13T14:22:05.961Z,3
2022-09-13T14:28:08.302Z,4
2022-09-13T14:34:18.973Z,4
2022-09-13T14:40:29.823Z,3
2022-09-13T14:46:40.348Z,4
2022-09-13T14:52:50.983Z,2
2022-09-13T14:59:01.748Z,3
2022-09-13T15:05:12.327Z,3
2022-09-13T15:11:23.002Z,2
2022-09-13T15:17:50.150Z,3
2022-09-13T15:24:00.697Z,4
2022-09-13T15:30:03.217Z,3
2022-09-13T15:36:13.862Z,3
2022-09-13T15:42:24.499Z,4
2022-09-13T15:48:35.164Z,4
2022-09-13T15:54:45.851Z,3
2022-09-13T16:00:56.578Z,4
2022-09-13T16:07:07.175Z,2
2022-09-13T16:13:17.885Z,4
2022-09-13T16:19:28.517Z,3
2022-09-13T16:25:39.186Z,2
2022-09-13T16:31:50.079Z,3
2022-09-13T16:37:52.328Z,3
2022-09-13T16:46:31.399Z,2
2022-09-13T16:52:41.952Z,4
2022-09-13T16:58:52.626Z,2
2022-09-13T17:05:03.280Z,2
2022-09-13T17:11:13.952Z,3
2022-09-13T17:17:24.607Z,2
2022-09-13T17:23:35.252Z,3
2022-09-13T17:29:46.082Z,3
2022-09-13T17:35:56.605Z,2
2022-09-13T17:43:13.210Z,6
2022-09-13T17:48:26.230Z,2
2022-09-13T17:54:36.812Z,3
2022-09-13T18:00:47.444Z,2
2022-09-13T18:05:52.211Z,2
2022-09-13T18:12:02.843Z,3
2022-09-13T18:18:13.518Z,2
2022-09-13T18:24:24.226Z,3
2022-09-13T18:30:34.853Z,4
2022-09-13T18:36:45.498Z,3
2022-09-13T18:42:48.026Z,3
2022-09-13T18:48:58.676Z,5
2022-09-13T18:55:09.331Z,2
2022-09-13T19:01:20.216Z,4
2022-09-13T19:07:30.697Z,4
2022-09-13T19:13:41.322Z,4
2022-09-13T19:19:52.029Z,4
2022-09-13T19:26:02.661Z,4
2022-09-13T19:32:13.355Z,5
2022-09-13T19:38:24.005Z,6
2022-09-13T19:44:26.487Z,4
2022-09-13T19:50:37.139Z,6
2022-09-13T19:56:47.912Z,6
2022-09-13T20:02:58.495Z,3
2022-09-13T20:09:09.128Z,3
2022-09-13T20:15:19.923Z,4
2022-09-13T20:20:32.739Z,3
2022-09-13T20:26:43.399Z,4
2022-09-13T20:32:54.183Z,5
2022-09-13T20:39:04.763Z,6
2022-09-13T20:45:07.238Z,5
2022-09-13T20:51:17.882Z,5
2022-09-13T20:57:28.529Z,5
2022-09-13T21:03:39.230Z,5
2022-09-13T21:09:49.888Z,4
2022-09-13T21:16:00.548Z,5
2022-09-13T21:22:11.210Z,5
2022-09-13T21:28:22.147Z,4
2022-09-13T21:34:32.535Z,5
2022-09-13T21:40:35.009Z,7
2022-09-13T21:46:46.707Z,7
2022-09-13T21:52:56.364Z,7
2022-09-13T21:59:07.036Z,6
2022-09-13T22:05:17.714Z,9
2022-09-13T22:11:28.438Z,6
2022-09-13T22:16:33.117Z,6
2022-09-13T22:22:43.898Z,6
2022-09-13T22:28:54.422Z,7
2022-09-13T22:35:05.117Z,6
2022-09-13T22:41:07.575Z,8
2022-09-13T22:47:34.633Z,8
2022-09-13T22:53:45.288Z,9
2022-09-13T22:59:55.987Z,10
2022-09-13T23:06:06.610Z,17
2022-09-13T23:12:17.307Z,18
2022-09-13T23:18:27.955Z,22
2022-09-13T23:24:38.602Z,20
2022-09-13T23:30:49.322Z,19
2022-09-13T23:36:59.972Z,16
2022-09-13T23:44:16.574Z,17
2022-09-13T23:50:27.243Z,23
2022-09-13T23:56:38.042Z,19
